CheckWX is a tool to help pilots better visualize weather data.  It is not intended as a substitute for an official pre-flight weather briefing.

04:40:58 UTC

MMMD TAF
Licenciado Manuel Crescencio Rejon Int Airport
Mérida, Mexico
TAF MMMD 222317Z 2300/2406 03012KT P6SM SKC TX32/2319Z TN16/2312Z BECMG 2303/2304 09008KT FM231800 06012KT P6SM SCT020 BECMG 2403/2404 09008KT SKC

Mar-23@
00:00 UTC

Mar-23 @ 00:00 UTC

Mar-23@
03:00 UTC

Mar-23 @ 03:00 UTC

TAF MMMD 222317Z 2300/2406 03012KT P6SM SKC TX32/2319Z TN16/2312Z

Expired

Wind
  • 030° at 12 KTS
Cloud Levels
  • Clear skies

Mar-23@
03:00 UTC

Mar-23 @ 03:00 UTC

Mar-23@
18:00 UTC

Mar-23 @ 18:00 UTC

BECMG 2303/2304 09008KT

Becoming

Becoming Conditions expected by Sat, Mar 23, 2019 @ 04:00 UTC

Wind
  • 090° at 8 KTS
Cloud Levels
  • Clear skies

Mar-23@
18:00 UTC

Mar-23 @ 18:00 UTC

Mar-24@
03:00 UTC

Mar-24 @ 03:00 UTC

FM231800 06012KT P6SM SCT020

From

From Standard forecast or significant change

Wind
  • 060° at 12 KTS
Cloud Levels
  • Scattered at 2,000' AGL

Mar-24@
03:00 UTC

Mar-24 @ 03:00 UTC

Mar-24@
06:00 UTC

Mar-24 @ 06:00 UTC

BECMG 2403/2404 09008KT SKC

Becoming

Becoming Conditions expected by Sun, Mar 24, 2019 @ 04:00 UTC

Wind
  • 090° at 8 KTS
Cloud Levels
  • Clear skies